Ruddington, United Kingdom
Current Conditions -  °F | °C
As of 7:50 AM on Saturday 25 Oct 2014 (Local Time) from EGNX Reporting Station
Clear Clear  
Wind Chill: 41°   Ceiling: Unl
Heat Index: 46°   Visibility: 6mi
Dew Point: 43°   Wind: 12mph
Humidity: 87%   Direction: 220°SW
Pressure: 29.97"   Gusts: NA
Location:  52.89°N, 1.15°W
Report Text: EGNX 250650Z 22010KT CAVOK 08/06 Q1015
Loading
Personal Weather Stations






























Interactive Weather Map New forecast layout! Learn more

10-Day Weather Forecast

Advertisements
Track Severe Weather on mobile